sensor_id;sensor_type;location;lat;lon;timestamp;P1;durP1;ratioP1;P2;durP2;ratioP2
13406;SDS011;6774;48.208;10.766;2023-08-21T00:00:51;5.37;;;4.97;;
13406;SDS011;6774;48.208;10.766;2023-08-21T00:03:20;4.17;;;3.97;;
13406;SDS011;6774;48.208;10.766;2023-08-21T00:05:48;5.03;;;4.73;;
13406;SDS011;6774;48.208;10.766;2023-08-21T00:08:16;4.20;;;4.00;;
13406;SDS011;6774;48.208;10.766;2023-08-21T00:10:44;9.93;;;4.70;;
13406;SDS011;6774;48.208;10.766;2023-08-21T00:13:11;4.83;;;4.47;;
13406;SDS011;6774;48.208;10.766;2023-08-21T00:15:39;4.33;;;4.13;;
13406;SDS011;6774;48.208;10.766;2023-08-21T00:18:09;4.57;;;4.27;;
13406;SDS011;6774;48.208;10.766;2023-08-21T00:20:37;3.33;;;3.13;;
13406;SDS011;6774;48.208;10.766;2023-08-21T00:23:05;3.00;;;2.90;;
13406;SDS011;6774;48.208;10.766;2023-08-21T00:25:33;3.40;;;3.30;;
13406;SDS011;6774;48.208;10.766;2023-08-21T00:28:01;4.40;;;4.20;;
13406;SDS011;6774;48.208;10.766;2023-08-21T00:30:29;4.53;;;4.27;;
13406;SDS011;6774;48.208;10.766;2023-08-21T00:32:57;4.70;;;4.27;;
13406;SDS011;6774;48.208;10.766;2023-08-21T00:35:26;4.50;;;4.30;;
13406;SDS011;6774;48.208;10.766;2023-08-21T00:37:54;3.97;;;3.77;;
13406;SDS011;6774;48.208;10.766;2023-08-21T00:40:21;4.03;;;3.83;;
13406;SDS011;6774;48.208;10.766;2023-08-21T00:42:49;4.10;;;3.90;;
13406;SDS011;6774;48.208;10.766;2023-08-21T00:45:17;4.40;;;4.20;;
13406;SDS011;6774;48.208;10.766;2023-08-21T00:47:45;4.00;;;3.80;;
13406;SDS011;6774;48.208;10.766;2023-08-21T00:50:13;4.40;;;4.07;;
13406;SDS011;6774;48.208;10.766;2023-08-21T00:52:44;7.07;;;4.37;;
13406;SDS011;6774;48.208;10.766;2023-08-21T00:55:13;5.67;;;5.17;;
13406;SDS011;6774;48.208;10.766;2023-08-21T00:57:41;4.80;;;4.60;;
13406;SDS011;6774;48.208;10.766;2023-08-21T01:00:11;5.67;;;4.93;;
13406;SDS011;6774;48.208;10.766;2023-08-21T01:02:40;4.73;;;4.17;;
13406;SDS011;6774;48.208;10.766;2023-08-21T01:05:11;3.93;;;3.63;;
13406;SDS011;6774;48.208;10.766;2023-08-21T01:07:42;4.67;;;4.30;;
13406;SDS011;6774;48.208;10.766;2023-08-21T01:10:19;4.80;;;4.60;;
13406;SDS011;6774;48.208;10.766;2023-08-21T01:12:50;4.37;;;3.97;;
13406;SDS011;6774;48.208;10.766;2023-08-21T01:15:25;3.73;;;3.43;;
13406;SDS011;6774;48.208;10.766;2023-08-21T01:17:53;4.27;;;4.07;;
13406;SDS011;6774;48.208;10.766;2023-08-21T01:20:22;3.93;;;3.73;;
13406;SDS011;6774;48.208;10.766;2023-08-21T01:22:52;4.37;;;4.17;;
13406;SDS011;6774;48.208;10.766;2023-08-21T01:25:22;4.13;;;3.83;;
13406;SDS011;6774;48.208;10.766;2023-08-21T01:27:50;4.00;;;3.70;;
13406;SDS011;6774;48.208;10.766;2023-08-21T01:30:19;4.40;;;4.10;;
13406;SDS011;6774;48.208;10.766;2023-08-21T01:32:48;4.07;;;3.87;;
13406;SDS011;6774;48.208;10.766;2023-08-21T01:35:26;4.43;;;4.23;;
13406;SDS011;6774;48.208;10.766;2023-08-21T01:37:55;4.00;;;3.73;;
13406;SDS011;6774;48.208;10.766;2023-08-21T01:40:24;4.63;;;4.43;;
13406;SDS011;6774;48.208;10.766;2023-08-21T01:42:52;4.87;;;4.67;;
13406;SDS011;6774;48.208;10.766;2023-08-21T01:45:21;4.87;;;4.57;;
13406;SDS011;6774;48.208;10.766;2023-08-21T01:47:50;6.43;;;5.93;;
13406;SDS011;6774;48.208;10.766;2023-08-21T01:50:18;5.07;;;4.87;;
13406;SDS011;6774;48.208;10.766;2023-08-21T01:52:45;4.43;;;4.23;;
13406;SDS011;6774;48.208;10.766;2023-08-21T01:55:13;5.93;;;5.50;;
13406;SDS011;6774;48.208;10.766;2023-08-21T01:57:43;4.87;;;4.57;;
13406;SDS011;6774;48.208;10.766;2023-08-21T02:00:11;4.80;;;4.50;;
13406;SDS011;6774;48.208;10.766;2023-08-21T02:02:40;5.63;;;5.13;;
13406;SDS011;6774;48.208;10.766;2023-08-21T02:05:08;4.93;;;4.73;;
13406;SDS011;6774;48.208;10.766;2023-08-21T02:07:37;5.40;;;5.10;;
13406;SDS011;6774;48.208;10.766;2023-08-21T02:10:06;4.47;;;4.27;;
13406;SDS011;6774;48.208;10.766;2023-08-21T02:12:35;4.50;;;4.30;;
13406;SDS011;6774;48.208;10.766;2023-08-21T02:15:08;4.90;;;4.60;;
13406;SDS011;6774;48.208;10.766;2023-08-21T02:17:37;4.37;;;4.07;;
13406;SDS011;6774;48.208;10.766;2023-08-21T02:20:05;5.03;;;4.73;;
13406;SDS011;6774;48.208;10.766;2023-08-21T02:22:34;4.33;;;4.03;;
13406;SDS011;6774;48.208;10.766;2023-08-21T02:25:02;4.83;;;4.43;;
13406;SDS011;6774;48.208;10.766;2023-08-21T02:27:30;4.33;;;4.07;;
13406;SDS011;6774;48.208;10.766;2023-08-21T02:29:58;10.70;;;5.53;;
13406;SDS011;6774;48.208;10.766;2023-08-21T02:32:30;6.37;;;5.87;;
13406;SDS011;6774;48.208;10.766;2023-08-21T02:34:59;5.00;;;4.70;;
13406;SDS011;6774;48.208;10.766;2023-08-21T02:37:27;5.03;;;4.83;;
13406;SDS011;6774;48.208;10.766;2023-08-21T02:39:54;4.50;;;4.30;;
13406;SDS011;6774;48.208;10.766;2023-08-21T02:42:23;4.93;;;4.47;;
13406;SDS011;6774;48.208;10.766;2023-08-21T02:44:50;4.50;;;4.10;;
13406;SDS011;6774;48.208;10.766;2023-08-21T02:47:18;4.63;;;4.37;;
13406;SDS011;6774;48.208;10.766;2023-08-21T02:49:47;4.27;;;4.07;;
13406;SDS011;6774;48.208;10.766;2023-08-21T02:52:15;5.60;;;4.30;;
13406;SDS011;6774;48.208;10.766;2023-08-21T02:54:43;4.30;;;4.10;;
13406;SDS011;6774;48.208;10.766;2023-08-21T02:57:11;5.07;;;4.87;;
13406;SDS011;6774;48.208;10.766;2023-08-21T02:59:39;3.37;;;3.27;;
13406;SDS011;6774;48.208;10.766;2023-08-21T03:02:07;4.37;;;4.17;;
13406;SDS011;6774;48.208;10.766;2023-08-21T03:04:35;4.60;;;4.30;;
13406;SDS011;6774;48.208;10.766;2023-08-21T03:07:04;3.93;;;3.73;;
13406;SDS011;6774;48.208;10.766;2023-08-21T03:09:31;4.77;;;4.47;;
13406;SDS011;6774;48.208;10.766;2023-08-21T03:11:59;4.63;;;4.43;;
13406;SDS011;6774;48.208;10.766;2023-08-21T03:14:27;6.03;;;5.53;;
13406;SDS011;6774;48.208;10.766;2023-08-21T03:16:55;5.57;;;5.07;;
13406;SDS011;6774;48.208;10.766;2023-08-21T03:19:23;4.93;;;4.63;;
13406;SDS011;6774;48.208;10.766;2023-08-21T03:21:51;5.50;;;5.00;;
13406;SDS011;6774;48.208;10.766;2023-08-21T03:24:20;4.53;;;4.27;;
13406;SDS011;6774;48.208;10.766;2023-08-21T03:26:48;6.00;;;5.70;;
13406;SDS011;6774;48.208;10.766;2023-08-21T03:29:16;6.30;;;5.87;;
13406;SDS011;6774;48.208;10.766;2023-08-21T03:31:46;6.43;;;6.03;;
13406;SDS011;6774;48.208;10.766;2023-08-21T03:34:14;5.83;;;5.43;;
13406;SDS011;6774;48.208;10.766;2023-08-21T03:36:42;6.30;;;5.67;;
13406;SDS011;6774;48.208;10.766;2023-08-21T03:39:10;6.70;;;6.33;;
13406;SDS011;6774;48.208;10.766;2023-08-21T03:41:44;7.03;;;6.53;;
13406;SDS011;6774;48.208;10.766;2023-08-21T03:44:12;6.37;;;5.93;;
13406;SDS011;6774;48.208;10.766;2023-08-21T03:46:39;11.47;;;6.27;;
13406;SDS011;6774;48.208;10.766;2023-08-21T03:49:08;5.90;;;5.50;;
13406;SDS011;6774;48.208;10.766;2023-08-21T03:51:36;6.13;;;5.73;;
13406;SDS011;6774;48.208;10.766;2023-08-21T03:54:04;6.43;;;5.93;;
13406;SDS011;6774;48.208;10.766;2023-08-21T03:56:32;5.53;;;5.23;;
13406;SDS011;6774;48.208;10.766;2023-08-21T03:59:01;6.00;;;5.60;;
13406;SDS011;6774;48.208;10.766;2023-08-21T04:01:29;6.53;;;5.97;;
13406;SDS011;6774;48.208;10.766;2023-08-21T04:03:57;5.10;;;4.83;;
13406;SDS011;6774;48.208;10.766;2023-08-21T04:06:25;5.27;;;4.87;;
13406;SDS011;6774;48.208;10.766;2023-08-21T04:08:52;6.13;;;5.63;;
13406;SDS011;6774;48.208;10.766;2023-08-21T04:11:20;8.37;;;5.57;;
13406;SDS011;6774;48.208;10.766;2023-08-21T04:13:48;5.07;;;4.87;;
13406;SDS011;6774;48.208;10.766;2023-08-21T04:16:17;6.37;;;5.77;;
13406;SDS011;6774;48.208;10.766;2023-08-21T04:18:48;6.90;;;5.67;;
13406;SDS011;6774;48.208;10.766;2023-08-21T04:21:17;8.27;;;7.57;;
13406;SDS011;6774;48.208;10.766;2023-08-21T04:23:45;4.60;;;4.40;;
13406;SDS011;6774;48.208;10.766;2023-08-21T04:26:13;4.30;;;3.90;;
13406;SDS011;6774;48.208;10.766;2023-08-21T04:28:41;6.17;;;5.67;;
13406;SDS011;6774;48.208;10.766;2023-08-21T04:31:09;4.27;;;3.83;;
13406;SDS011;6774;48.208;10.766;2023-08-21T04:33:38;4.37;;;4.17;;
13406;SDS011;6774;48.208;10.766;2023-08-21T04:36:06;4.70;;;4.40;;
13406;SDS011;6774;48.208;10.766;2023-08-21T04:38:34;3.67;;;3.50;;
13406;SDS011;6774;48.208;10.766;2023-08-21T04:41:07;5.30;;;4.97;;
13406;SDS011;6774;48.208;10.766;2023-08-21T04:43:38;7.27;;;6.70;;
13406;SDS011;6774;48.208;10.766;2023-08-21T04:46:07;5.27;;;4.97;;
13406;SDS011;6774;48.208;10.766;2023-08-21T04:48:40;5.57;;;5.07;;
13406;SDS011;6774;48.208;10.766;2023-08-21T04:51:07;5.67;;;5.27;;
13406;SDS011;6774;48.208;10.766;2023-08-21T04:53:36;4.80;;;4.50;;
13406;SDS011;6774;48.208;10.766;2023-08-21T04:56:09;6.20;;;5.80;;
13406;SDS011;6774;48.208;10.766;2023-08-21T04:58:37;5.03;;;4.83;;
13406;SDS011;6774;48.208;10.766;2023-08-21T05:01:06;5.87;;;5.47;;
13406;SDS011;6774;48.208;10.766;2023-08-21T05:03:39;5.90;;;5.50;;
13406;SDS011;6774;48.208;10.766;2023-08-21T05:06:08;7.77;;;5.57;;
13406;SDS011;6774;48.208;10.766;2023-08-21T05:08:36;5.50;;;5.20;;
13406;SDS011;6774;48.208;10.766;2023-08-21T05:11:06;5.53;;;5.13;;
13406;SDS011;6774;48.208;10.766;2023-08-21T05:13:36;5.90;;;5.50;;
13406;SDS011;6774;48.208;10.766;2023-08-21T05:16:07;5.90;;;5.60;;
13406;SDS011;6774;48.208;10.766;2023-08-21T05:18:37;6.70;;;5.80;;
13406;SDS011;6774;48.208;10.766;2023-08-21T05:21:07;6.93;;;6.40;;
13406;SDS011;6774;48.208;10.766;2023-08-21T05:23:35;6.57;;;6.13;;
13406;SDS011;6774;48.208;10.766;2023-08-21T05:26:06;7.77;;;6.63;;
13406;SDS011;6774;48.208;10.766;2023-08-21T05:28:34;6.30;;;6.00;;
13406;SDS011;6774;48.208;10.766;2023-08-21T05:31:02;6.33;;;6.03;;
13406;SDS011;6774;48.208;10.766;2023-08-21T05:33:42;7.17;;;5.60;;
13406;SDS011;6774;48.208;10.766;2023-08-21T05:36:11;7.30;;;6.73;;
13406;SDS011;6774;48.208;10.766;2023-08-21T05:38:39;7.50;;;6.77;;
13406;SDS011;6774;48.208;10.766;2023-08-21T05:41:07;6.13;;;5.73;;
13406;SDS011;6774;48.208;10.766;2023-08-21T05:43:35;6.87;;;6.37;;
13406;SDS011;6774;48.208;10.766;2023-08-21T05:46:05;7.17;;;6.03;;
13406;SDS011;6774;48.208;10.766;2023-08-21T05:48:33;6.40;;;6.10;;
13406;SDS011;6774;48.208;10.766;2023-08-21T05:51:01;7.43;;;6.93;;
13406;SDS011;6774;48.208;10.766;2023-08-21T05:53:32;7.47;;;6.77;;
13406;SDS011;6774;48.208;10.766;2023-08-21T05:56:01;7.53;;;7.03;;
13406;SDS011;6774;48.208;10.766;2023-08-21T05:58:29;7.90;;;7.40;;
13406;SDS011;6774;48.208;10.766;2023-08-21T06:00:59;14.03;;;7.17;;
13406;SDS011;6774;48.208;10.766;2023-08-21T06:03:29;15.90;;;8.00;;
13406;SDS011;6774;48.208;10.766;2023-08-21T06:06:13;6.87;;;6.50;;
13406;SDS011;6774;48.208;10.766;2023-08-21T06:08:42;10.00;;;9.23;;
13406;SDS011;6774;48.208;10.766;2023-08-21T06:11:10;8.73;;;7.03;;
13406;SDS011;6774;48.208;10.766;2023-08-21T06:13:38;7.73;;;6.77;;
13406;SDS011;6774;48.208;10.766;2023-08-21T06:16:06;6.63;;;6.03;;
13406;SDS011;6774;48.208;10.766;2023-08-21T06:18:36;9.23;;;6.40;;
13406;SDS011;6774;48.208;10.766;2023-08-21T06:21:04;5.77;;;5.47;;
13406;SDS011;6774;48.208;10.766;2023-08-21T06:23:32;6.80;;;6.33;;
13406;SDS011;6774;48.208;10.766;2023-08-21T06:26:01;5.23;;;4.93;;
13406;SDS011;6774;48.208;10.766;2023-08-21T06:28:29;5.47;;;5.07;;
13406;SDS011;6774;48.208;10.766;2023-08-21T06:30:57;6.03;;;5.63;;
13406;SDS011;6774;48.208;10.766;2023-08-21T06:33:25;5.70;;;5.10;;
13406;SDS011;6774;48.208;10.766;2023-08-21T06:35:53;7.57;;;6.93;;
13406;SDS011;6774;48.208;10.766;2023-08-21T06:38:21;8.23;;;7.63;;
13406;SDS011;6774;48.208;10.766;2023-08-21T06:40:49;7.00;;;6.47;;
13406;SDS011;6774;48.208;10.766;2023-08-21T06:43:18;7.43;;;6.73;;
13406;SDS011;6774;48.208;10.766;2023-08-21T06:45:49;6.47;;;5.97;;
13406;SDS011;6774;48.208;10.766;2023-08-21T06:48:17;5.83;;;5.43;;
13406;SDS011;6774;48.208;10.766;2023-08-21T06:50:45;6.07;;;5.67;;
13406;SDS011;6774;48.208;10.766;2023-08-21T06:53:12;6.07;;;5.40;;
13406;SDS011;6774;48.208;10.766;2023-08-21T06:55:40;6.03;;;5.60;;
13406;SDS011;6774;48.208;10.766;2023-08-21T06:58:08;6.13;;;5.43;;
13406;SDS011;6774;48.208;10.766;2023-08-21T07:00:37;6.32;;;5.72;;
13406;SDS011;6774;48.208;10.766;2023-08-21T07:03:05;6.63;;;6.22;;
13406;SDS011;6774;48.208;10.766;2023-08-21T07:05:34;5.65;;;5.35;;
13406;SDS011;6774;48.208;10.766;2023-08-21T07:08:02;6.45;;;5.60;;
13406;SDS011;6774;48.208;10.766;2023-08-21T07:10:32;5.07;;;4.68;;
13406;SDS011;6774;48.208;10.766;2023-08-21T07:13:03;7.95;;;7.30;;
13406;SDS011;6774;48.208;10.766;2023-08-21T07:15:31;9.05;;;8.23;;
13406;SDS011;6774;48.208;10.766;2023-08-21T07:18:00;8.00;;;7.38;;
13406;SDS011;6774;48.208;10.766;2023-08-21T07:20:28;7.38;;;6.68;;
13406;SDS011;6774;48.208;10.766;2023-08-21T07:22:55;7.40;;;6.88;;
13406;SDS011;6774;48.208;10.766;2023-08-21T07:25:23;10.10;;;8.27;;
13406;SDS011;6774;48.208;10.766;2023-08-21T07:27:53;7.30;;;6.68;;
13406;SDS011;6774;48.208;10.766;2023-08-21T07:30:21;7.90;;;6.57;;
13406;SDS011;6774;48.208;10.766;2023-08-21T07:35:30;8.15;;;7.40;;
13406;SDS011;6774;48.208;10.766;2023-08-21T07:37:58;8.35;;;6.88;;
13406;SDS011;6774;48.208;10.766;2023-08-21T07:40:26;9.68;;;6.78;;
13406;SDS011;6774;48.208;10.766;2023-08-21T07:42:53;8.23;;;7.60;;
13406;SDS011;6774;48.208;10.766;2023-08-21T07:45:21;8.40;;;7.70;;
13406;SDS011;6774;48.208;10.766;2023-08-21T07:47:49;8.02;;;7.40;;
13406;SDS011;6774;48.208;10.766;2023-08-21T07:50:38;7.47;;;5.88;;
13406;SDS011;6774;48.208;10.766;2023-08-21T07:53:06;8.77;;;8.27;;
13406;SDS011;6774;48.208;10.766;2023-08-21T07:55:34;6.88;;;6.45;;
13406;SDS011;6774;48.208;10.766;2023-08-21T07:58:01;8.82;;;8.13;;
13406;SDS011;6774;48.208;10.766;2023-08-21T08:00:30;10.75;;;7.82;;
13406;SDS011;6774;48.208;10.766;2023-08-21T08:02:59;9.77;;;9.13;;
13406;SDS011;6774;48.208;10.766;2023-08-21T08:05:27;8.30;;;7.78;;
13406;SDS011;6774;48.208;10.766;2023-08-21T08:07:56;7.65;;;7.05;;
13406;SDS011;6774;48.208;10.766;2023-08-21T08:10:24;6.90;;;5.75;;
13406;SDS011;6774;48.208;10.766;2023-08-21T08:12:51;7.22;;;6.75;;
13406;SDS011;6774;48.208;10.766;2023-08-21T08:15:19;7.05;;;6.75;;
13406;SDS011;6774;48.208;10.766;2023-08-21T08:17:47;6.57;;;5.50;;
13406;SDS011;6774;48.208;10.766;2023-08-21T08:20:18;5.50;;;5.20;;
13406;SDS011;6774;48.208;10.766;2023-08-21T08:22:46;5.90;;;5.40;;
13406;SDS011;6774;48.208;10.766;2023-08-21T08:25:15;6.70;;;6.38;;
13406;SDS011;6774;48.208;10.766;2023-08-21T08:27:44;7.47;;;6.97;;
13406;SDS011;6774;48.208;10.766;2023-08-21T08:30:12;5.13;;;4.72;;
13406;SDS011;6774;48.208;10.766;2023-08-21T08:32:40;5.30;;;5.10;;
13406;SDS011;6774;48.208;10.766;2023-08-21T08:35:12;5.32;;;5.03;;
13406;SDS011;6774;48.208;10.766;2023-08-21T08:37:40;6.50;;;6.10;;
13406;SDS011;6774;48.208;10.766;2023-08-21T08:40:08;5.88;;;5.57;;
13406;SDS011;6774;48.208;10.766;2023-08-21T08:42:38;6.50;;;6.13;;
13406;SDS011;6774;48.208;10.766;2023-08-21T08:45:06;5.75;;;5.45;;
13406;SDS011;6774;48.208;10.766;2023-08-21T08:47:35;4.78;;;4.47;;
13406;SDS011;6774;48.208;10.766;2023-08-21T08:50:03;6.20;;;5.90;;
13406;SDS011;6774;48.208;10.766;2023-08-21T08:52:34;4.88;;;4.60;;
13406;SDS011;6774;48.208;10.766;2023-08-21T08:55:03;5.22;;;4.88;;
13406;SDS011;6774;48.208;10.766;2023-08-21T08:57:33;4.70;;;4.50;;
13406;SDS011;6774;48.208;10.766;2023-08-21T09:00:04;5.45;;;5.18;;
13406;SDS011;6774;48.208;10.766;2023-08-21T09:02:32;5.63;;;5.32;;
13406;SDS011;6774;48.208;10.766;2023-08-21T09:05:00;5.40;;;5.00;;
13406;SDS011;6774;48.208;10.766;2023-08-21T09:07:28;5.80;;;4.57;;
13406;SDS011;6774;48.208;10.766;2023-08-21T09:09:56;4.72;;;4.53;;
13406;SDS011;6774;48.208;10.766;2023-08-21T09:12:24;5.93;;;5.38;;
13406;SDS011;6774;48.208;10.766;2023-08-21T09:14:51;5.30;;;4.97;;
13406;SDS011;6774;48.208;10.766;2023-08-21T09:17:21;5.03;;;4.65;;
13406;SDS011;6774;48.208;10.766;2023-08-21T09:19:50;4.95;;;4.65;;
13406;SDS011;6774;48.208;10.766;2023-08-21T09:22:18;4.05;;;3.60;;
13406;SDS011;6774;48.208;10.766;2023-08-21T09:24:59;4.00;;;3.72;;
13406;SDS011;6774;48.208;10.766;2023-08-21T09:27:33;4.55;;;4.15;;
13406;SDS011;6774;48.208;10.766;2023-08-21T09:30:03;3.97;;;3.83;;
13406;SDS011;6774;48.208;10.766;2023-08-21T09:32:33;4.07;;;3.53;;
13406;SDS011;6774;48.208;10.766;2023-08-21T09:35:20;4.53;;;4.10;;
13406;SDS011;6774;48.208;10.766;2023-08-21T09:37:48;4.35;;;4.05;;
13406;SDS011;6774;48.208;10.766;2023-08-21T09:40:19;3.55;;;3.35;;
13406;SDS011;6774;48.208;10.766;2023-08-21T09:42:51;4.43;;;4.22;;
13406;SDS011;6774;48.208;10.766;2023-08-21T09:45:22;5.07;;;4.88;;
13406;SDS011;6774;48.208;10.766;2023-08-21T09:47:51;3.83;;;3.72;;
13406;SDS011;6774;48.208;10.766;2023-08-21T09:50:20;4.47;;;4.28;;
13406;SDS011;6774;48.208;10.766;2023-08-21T09:52:49;4.13;;;4.03;;
13406;SDS011;6774;48.208;10.766;2023-08-21T09:55:18;4.80;;;4.43;;
13406;SDS011;6774;48.208;10.766;2023-08-21T09:57:47;3.25;;;3.05;;
13406;SDS011;6774;48.208;10.766;2023-08-21T10:00:23;3.88;;;3.78;;
13406;SDS011;6774;48.208;10.766;2023-08-21T10:02:52;3.55;;;3.45;;
13406;SDS011;6774;48.208;10.766;2023-08-21T10:05:21;5.13;;;4.82;;
13406;SDS011;6774;48.208;10.766;2023-08-21T10:07:49;5.07;;;4.57;;
13406;SDS011;6774;48.208;10.766;2023-08-21T10:10:17;4.13;;;4.03;;
13406;SDS011;6774;48.208;10.766;2023-08-21T10:12:45;4.70;;;4.35;;
13406;SDS011;6774;48.208;10.766;2023-08-21T10:15:13;4.70;;;4.38;;
13406;SDS011;6774;48.208;10.766;2023-08-21T10:17:42;4.30;;;4.00;;
13406;SDS011;6774;48.208;10.766;2023-08-21T10:20:12;5.20;;;4.90;;
13406;SDS011;6774;48.208;10.766;2023-08-21T10:22:42;5.20;;;4.90;;
13406;SDS011;6774;48.208;10.766;2023-08-21T10:25:14;5.18;;;4.88;;
13406;SDS011;6774;48.208;10.766;2023-08-21T10:27:43;5.20;;;4.80;;
13406;SDS011;6774;48.208;10.766;2023-08-21T10:30:19;4.50;;;4.30;;
13406;SDS011;6774;48.208;10.766;2023-08-21T10:32:48;4.90;;;4.50;;
13406;SDS011;6774;48.208;10.766;2023-08-21T10:35:19;5.05;;;4.85;;
13406;SDS011;6774;48.208;10.766;2023-08-21T10:38:07;4.82;;;4.63;;
13406;SDS011;6774;48.208;10.766;2023-08-21T10:40:36;5.20;;;4.75;;
13406;SDS011;6774;48.208;10.766;2023-08-21T10:43:05;4.13;;;4.03;;
13406;SDS011;6774;48.208;10.766;2023-08-21T10:46:05;4.80;;;4.47;;
13406;SDS011;6774;48.208;10.766;2023-08-21T10:48:33;5.28;;;4.88;;
13406;SDS011;6774;48.208;10.766;2023-08-21T10:51:03;5.65;;;5.35;;
13406;SDS011;6774;48.208;10.766;2023-08-21T10:53:32;6.47;;;5.95;;
13406;SDS011;6774;48.208;10.766;2023-08-21T10:56:01;5.00;;;4.80;;
13406;SDS011;6774;48.208;10.766;2023-08-21T10:58:34;5.68;;;5.47;;
13406;SDS011;6774;48.208;10.766;2023-08-21T11:01:02;6.10;;;5.88;;
13406;SDS011;6774;48.208;10.766;2023-08-21T11:03:30;5.95;;;5.75;;
13406;SDS011;6774;48.208;10.766;2023-08-21T11:06:03;5.18;;;4.90;;
13406;SDS011;6774;48.208;10.766;2023-08-21T11:08:32;6.65;;;5.60;;
13406;SDS011;6774;48.208;10.766;2023-08-21T11:11:01;6.50;;;6.20;;
13406;SDS011;6774;48.208;10.766;2023-08-21T11:13:30;5.32;;;5.10;;
13406;SDS011;6774;48.208;10.766;2023-08-21T11:15:58;5.18;;;4.88;;
13406;SDS011;6774;48.208;10.766;2023-08-21T11:18:30;5.88;;;5.63;;
13406;SDS011;6774;48.208;10.766;2023-08-21T11:21:06;5.47;;;5.28;;
13406;SDS011;6774;48.208;10.766;2023-08-21T11:23:36;5.93;;;5.63;;
13406;SDS011;6774;48.208;10.766;2023-08-21T11:26:05;5.60;;;5.35;;
13406;SDS011;6774;48.208;10.766;2023-08-21T11:28:46;5.13;;;4.85;;
13406;SDS011;6774;48.208;10.766;2023-08-21T11:31:15;5.90;;;5.50;;
13406;SDS011;6774;48.208;10.766;2023-08-21T11:33:48;6.95;;;6.45;;
13406;SDS011;6774;48.208;10.766;2023-08-21T11:36:18;5.47;;;4.65;;
13406;SDS011;6774;48.208;10.766;2023-08-21T11:38:57;5.35;;;4.95;;
13406;SDS011;6774;48.208;10.766;2023-08-21T11:41:26;6.10;;;5.70;;
13406;SDS011;6774;48.208;10.766;2023-08-21T11:43:57;5.35;;;5.05;;
13406;SDS011;6774;48.208;10.766;2023-08-21T11:46:30;5.85;;;5.30;;
13406;SDS011;6774;48.208;10.766;2023-08-21T11:48:58;5.18;;;4.88;;
13406;SDS011;6774;48.208;10.766;2023-08-21T11:51:30;6.05;;;5.75;;
13406;SDS011;6774;48.208;10.766;2023-08-21T11:54:05;5.40;;;5.15;;
13406;SDS011;6774;48.208;10.766;2023-08-21T11:56:33;5.93;;;5.53;;
13406;SDS011;6774;48.208;10.766;2023-08-21T11:59:03;5.45;;;5.15;;
13406;SDS011;6774;48.208;10.766;2023-08-21T12:01:33;6.65;;;6.15;;
13406;SDS011;6774;48.208;10.766;2023-08-21T12:04:01;5.88;;;5.10;;
13406;SDS011;6774;48.208;10.766;2023-08-21T12:06:44;5.50;;;5.00;;
13406;SDS011;6774;48.208;10.766;2023-08-21T12:09:12;5.80;;;5.35;;
13406;SDS011;6774;48.208;10.766;2023-08-21T12:11:40;5.32;;;5.03;;
13406;SDS011;6774;48.208;10.766;2023-08-21T12:14:08;9.18;;;6.03;;
13406;SDS011;6774;48.208;10.766;2023-08-21T12:16:35;6.03;;;5.47;;
13406;SDS011;6774;48.208;10.766;2023-08-21T12:19:03;4.53;;;4.25;;
13406;SDS011;6774;48.208;10.766;2023-08-21T12:21:34;4.88;;;4.68;;
13406;SDS011;6774;48.208;10.766;2023-08-21T12:24:05;4.45;;;4.25;;
13406;SDS011;6774;48.208;10.766;2023-08-21T12:26:33;5.80;;;5.40;;
13406;SDS011;6774;48.208;10.766;2023-08-21T12:29:14;6.50;;;6.07;;
13406;SDS011;6774;48.208;10.766;2023-08-21T12:31:41;4.88;;;4.68;;
13406;SDS011;6774;48.208;10.766;2023-08-21T12:34:09;4.15;;;3.95;;
13406;SDS011;6774;48.208;10.766;2023-08-21T12:36:37;6.70;;;6.18;;
13406;SDS011;6774;48.208;10.766;2023-08-21T12:39:06;6.25;;;5.75;;
13406;SDS011;6774;48.208;10.766;2023-08-21T12:41:35;4.90;;;4.70;;
13406;SDS011;6774;48.208;10.766;2023-08-21T12:44:03;5.55;;;5.25;;
13406;SDS011;6774;48.208;10.766;2023-08-21T12:46:35;5.05;;;4.80;;
13406;SDS011;6774;48.208;10.766;2023-08-21T12:49:02;4.35;;;4.15;;
13406;SDS011;6774;48.208;10.766;2023-08-21T12:51:31;5.45;;;4.65;;
13406;SDS011;6774;48.208;10.766;2023-08-21T12:53:58;5.18;;;4.88;;
13406;SDS011;6774;48.208;10.766;2023-08-21T12:56:27;4.43;;;4.10;;
13406;SDS011;6774;48.208;10.766;2023-08-21T12:58:55;5.20;;;4.88;;
13406;SDS011;6774;48.208;10.766;2023-08-21T13:01:23;4.50;;;4.30;;
13406;SDS011;6774;48.208;10.766;2023-08-21T13:03:51;4.88;;;4.47;;
13406;SDS011;6774;48.208;10.766;2023-08-21T13:06:19;6.28;;;5.85;;
13406;SDS011;6774;48.208;10.766;2023-08-21T13:08:46;4.68;;;4.35;;
13406;SDS011;6774;48.208;10.766;2023-08-21T13:11:15;5.20;;;4.80;;
13406;SDS011;6774;48.208;10.766;2023-08-21T13:13:44;6.35;;;5.88;;
13406;SDS011;6774;48.208;10.766;2023-08-21T13:16:11;5.53;;;5.15;;
13406;SDS011;6774;48.208;10.766;2023-08-21T13:18:40;5.25;;;4.95;;
13406;SDS011;6774;48.208;10.766;2023-08-21T13:21:08;5.28;;;4.97;;
13406;SDS011;6774;48.208;10.766;2023-08-21T13:23:35;5.57;;;5.28;;
13406;SDS011;6774;48.208;10.766;2023-08-21T13:26:03;4.88;;;4.60;;
13406;SDS011;6774;48.208;10.766;2023-08-21T13:28:31;5.68;;;5.38;;
13406;SDS011;6774;48.208;10.766;2023-08-21T13:31:00;4.35;;;4.15;;
13406;SDS011;6774;48.208;10.766;2023-08-21T13:33:27;4.18;;;4.07;;
13406;SDS011;6774;48.208;10.766;2023-08-21T13:35:56;4.43;;;4.23;;
13406;SDS011;6774;48.208;10.766;2023-08-21T13:38:24;4.57;;;4.47;;
13406;SDS011;6774;48.208;10.766;2023-08-21T13:40:52;5.55;;;5.35;;
13406;SDS011;6774;48.208;10.766;2023-08-21T13:43:20;3.72;;;3.55;;
13406;SDS011;6774;48.208;10.766;2023-08-21T13:45:54;5.13;;;4.93;;
13406;SDS011;6774;48.208;10.766;2023-08-21T13:48:23;4.75;;;4.45;;
13406;SDS011;6774;48.208;10.766;2023-08-21T13:50:51;5.55;;;5.25;;
13406;SDS011;6774;48.208;10.766;2023-08-21T13:53:19;4.85;;;4.55;;
13406;SDS011;6774;48.208;10.766;2023-08-21T13:55:46;4.03;;;3.92;;
13406;SDS011;6774;48.208;10.766;2023-08-21T13:58:14;5.28;;;4.93;;
13406;SDS011;6774;48.208;10.766;2023-08-21T14:00:42;5.35;;;5.00;;
13406;SDS011;6774;48.208;10.766;2023-08-21T14:03:10;3.95;;;3.70;;
13406;SDS011;6774;48.208;10.766;2023-08-21T14:05:39;4.50;;;4.30;;
13406;SDS011;6774;48.208;10.766;2023-08-21T14:08:07;4.00;;;3.80;;
13406;SDS011;6774;48.208;10.766;2023-08-21T14:10:35;5.50;;;5.07;;
13406;SDS011;6774;48.208;10.766;2023-08-21T14:13:03;5.50;;;5.20;;
13406;SDS011;6774;48.208;10.766;2023-08-21T14:15:34;3.90;;;3.60;;
13406;SDS011;6774;48.208;10.766;2023-08-21T14:18:02;4.45;;;4.25;;
13406;SDS011;6774;48.208;10.766;2023-08-21T14:20:31;4.35;;;4.10;;
13406;SDS011;6774;48.208;10.766;2023-08-21T14:23:00;3.85;;;3.65;;
13406;SDS011;6774;48.208;10.766;2023-08-21T14:25:28;4.35;;;3.80;;
13406;SDS011;6774;48.208;10.766;2023-08-21T14:27:56;4.47;;;4.25;;
13406;SDS011;6774;48.208;10.766;2023-08-21T14:30:23;3.45;;;3.30;;
13406;SDS011;6774;48.208;10.766;2023-08-21T14:32:52;5.18;;;4.70;;
13406;SDS011;6774;48.208;10.766;2023-08-21T14:35:19;3.95;;;3.75;;
13406;SDS011;6774;48.208;10.766;2023-08-21T14:37:47;4.55;;;3.47;;
13406;SDS011;6774;48.208;10.766;2023-08-21T14:40:16;4.65;;;4.22;;
13406;SDS011;6774;48.208;10.766;2023-08-21T14:42:44;4.85;;;4.38;;
13406;SDS011;6774;48.208;10.766;2023-08-21T14:45:12;4.20;;;4.00;;
13406;SDS011;6774;48.208;10.766;2023-08-21T14:47:39;4.65;;;4.35;;
13406;SDS011;6774;48.208;10.766;2023-08-21T14:50:08;3.95;;;3.65;;
13406;SDS011;6774;48.208;10.766;2023-08-21T14:52:37;2.92;;;2.83;;
13406;SDS011;6774;48.208;10.766;2023-08-21T14:55:05;4.10;;;3.40;;
13406;SDS011;6774;48.208;10.766;2023-08-21T14:57:34;4.18;;;3.97;;
13406;SDS011;6774;48.208;10.766;2023-08-21T15:00:02;3.40;;;3.15;;
13406;SDS011;6774;48.208;10.766;2023-08-21T15:02:30;5.95;;;3.95;;